sensor_id;sensor_type;location;lat;lon;timestamp;temperature;humidity
47626;DHT22;33342;45.574;9.252;2022-09-29T00:00:54;18.50;99.90
47626;DHT22;33342;45.574;9.252;2022-09-29T00:03:21;18.50;99.90
47626;DHT22;33342;45.574;9.252;2022-09-29T00:05:53;18.40;99.90
47626;DHT22;33342;45.574;9.252;2022-09-29T00:08:22;18.40;99.90
47626;DHT22;33342;45.574;9.252;2022-09-29T00:10:50;18.40;99.90
47626;DHT22;33342;45.574;9.252;2022-09-29T00:13:18;18.40;99.90
47626;DHT22;33342;45.574;9.252;2022-09-29T00:15:58;18.30;99.90
47626;DHT22;33342;45.574;9.252;2022-09-29T00:18:27;18.40;99.90
47626;DHT22;33342;45.574;9.252;2022-09-29T00:21:00;18.40;99.90
47626;DHT22;33342;45.574;9.252;2022-09-29T00:23:28;18.30;99.90
47626;DHT22;33342;45.574;9.252;2022-09-29T00:26:01;18.40;99.90
47626;DHT22;33342;45.574;9.252;2022-09-29T00:28:29;18.30;99.90
47626;DHT22;33342;45.574;9.252;2022-09-29T00:31:00;18.30;99.90
47626;DHT22;33342;45.574;9.252;2022-09-29T00:33:29;18.30;99.90
47626;DHT22;33342;45.574;9.252;2022-09-29T00:36:05;18.30;99.90
47626;DHT22;33342;45.574;9.252;2022-09-29T00:38:33;18.30;99.90
47626;DHT22;33342;45.574;9.252;2022-09-29T00:41:02;18.20;99.90
47626;DHT22;33342;45.574;9.252;2022-09-29T00:49:16;18.20;99.90
47626;DHT22;33342;45.574;9.252;2022-09-29T00:51:53;18.20;99.90
47626;DHT22;33342;45.574;9.252;2022-09-29T00:54:23;18.20;99.90
47626;DHT22;33342;45.574;9.252;2022-09-29T00:56:53;18.20;99.90
47626;DHT22;33342;45.574;9.252;2022-09-29T00:59:54;18.10;99.90
47626;DHT22;33342;45.574;9.252;2022-09-29T01:02:22;18.10;99.90
47626;DHT22;33342;45.574;9.252;2022-09-29T01:04:51;18.10;99.90
47626;DHT22;33342;45.574;9.252;2022-09-29T01:07:21;18.10;99.90
47626;DHT22;33342;45.574;9.252;2022-09-29T01:09:50;18.10;99.90
47626;DHT22;33342;45.574;9.252;2022-09-29T01:12:20;18.10;99.90
47626;DHT22;33342;45.574;9.252;2022-09-29T01:14:47;18.00;99.90
47626;DHT22;33342;45.574;9.252;2022-09-29T01:17:15;18.10;99.90
47626;DHT22;33342;45.574;9.252;2022-09-29T01:31:33;18.00;99.90
47626;DHT22;33342;45.574;9.252;2022-09-29T01:40:05;17.90;99.90
47626;DHT22;33342;45.574;9.252;2022-09-29T01:45:33;17.90;99.90
47626;DHT22;33342;45.574;9.252;2022-09-29T01:48:15;17.90;99.90
47626;DHT22;33342;45.574;9.252;2022-09-29T01:50:46;17.90;99.90
47626;DHT22;33342;45.574;9.252;2022-09-29T01:53:45;17.90;99.90
47626;DHT22;33342;45.574;9.252;2022-09-29T01:56:24;17.90;99.90
47626;DHT22;33342;45.574;9.252;2022-09-29T01:59:18;17.80;99.90
47626;DHT22;33342;45.574;9.252;2022-09-29T02:01:49;17.80;99.90
47626;DHT22;33342;45.574;9.252;2022-09-29T02:04:22;17.80;99.90
47626;DHT22;33342;45.574;9.252;2022-09-29T02:06:56;17.80;99.90
47626;DHT22;33342;45.574;9.252;2022-09-29T02:09:29;17.80;99.90
47626;DHT22;33342;45.574;9.252;2022-09-29T02:11:59;17.80;99.90
47626;DHT22;33342;45.574;9.252;2022-09-29T02:14:35;17.80;99.90
47626;DHT22;33342;45.574;9.252;2022-09-29T02:17:19;17.80;99.90
47626;DHT22;33342;45.574;9.252;2022-09-29T02:19:49;17.80;99.90
47626;DHT22;33342;45.574;9.252;2022-09-29T02:22:17;17.70;99.90
47626;DHT22;33342;45.574;9.252;2022-09-29T02:24:45;17.70;99.90
47626;DHT22;33342;45.574;9.252;2022-09-29T02:27:12;17.70;99.90
47626;DHT22;33342;45.574;9.252;2022-09-29T02:29:39;17.70;99.90
47626;DHT22;33342;45.574;9.252;2022-09-29T02:32:08;17.70;99.90
47626;DHT22;33342;45.574;9.252;2022-09-29T02:34:38;17.70;99.90
47626;DHT22;33342;45.574;9.252;2022-09-29T02:37:30;17.70;99.90
47626;DHT22;33342;45.574;9.252;2022-09-29T02:51:08;17.70;99.90
47626;DHT22;33342;45.574;9.252;2022-09-29T02:56:40;17.70;99.90
47626;DHT22;33342;45.574;9.252;2022-09-29T02:59:41;17.70;99.90
47626;DHT22;33342;45.574;9.252;2022-09-29T03:02:14;17.60;99.90
47626;DHT22;33342;45.574;9.252;2022-09-29T03:04:42;17.60;99.90
47626;DHT22;33342;45.574;9.252;2022-09-29T03:07:09;17.60;99.90
47626;DHT22;33342;45.574;9.252;2022-09-29T03:09:35;17.60;99.90
47626;DHT22;33342;45.574;9.252;2022-09-29T03:12:02;17.60;99.90
47626;DHT22;33342;45.574;9.252;2022-09-29T03:14:29;17.60;99.90
47626;DHT22;33342;45.574;9.252;2022-09-29T03:16:56;17.50;99.90
47626;DHT22;33342;45.574;9.252;2022-09-29T03:19:23;17.50;99.90
47626;DHT22;33342;45.574;9.252;2022-09-29T03:21:50;17.50;99.90
47626;DHT22;33342;45.574;9.252;2022-09-29T03:24:17;17.50;99.90
47626;DHT22;33342;45.574;9.252;2022-09-29T03:26:44;17.50;99.90
47626;DHT22;33342;45.574;9.252;2022-09-29T03:29:11;17.50;99.90
47626;DHT22;33342;45.574;9.252;2022-09-29T03:31:39;17.50;99.90
47626;DHT22;33342;45.574;9.252;2022-09-29T03:34:06;17.50;99.90
47626;DHT22;33342;45.574;9.252;2022-09-29T03:36:33;17.50;99.90
47626;DHT22;33342;45.574;9.252;2022-09-29T03:39:00;17.50;99.90
47626;DHT22;33342;45.574;9.252;2022-09-29T03:41:27;17.50;99.90
47626;DHT22;33342;45.574;9.252;2022-09-29T03:43:54;17.50;99.90
47626;DHT22;33342;45.574;9.252;2022-09-29T03:46:21;17.50;99.90
47626;DHT22;33342;45.574;9.252;2022-09-29T03:48:48;17.40;99.90
47626;DHT22;33342;45.574;9.252;2022-09-29T03:51:15;17.50;99.90
47626;DHT22;33342;45.574;9.252;2022-09-29T03:53:42;17.40;99.90
47626;DHT22;33342;45.574;9.252;2022-09-29T03:56:09;17.40;99.90
47626;DHT22;33342;45.574;9.252;2022-09-29T03:58:36;17.50;99.90
47626;DHT22;33342;45.574;9.252;2022-09-29T04:01:03;17.50;99.90
47626;DHT22;33342;45.574;9.252;2022-09-29T04:03:30;17.40;99.90
47626;DHT22;33342;45.574;9.252;2022-09-29T04:05:57;17.40;99.90
47626;DHT22;33342;45.574;9.252;2022-09-29T04:08:24;17.40;99.90
47626;DHT22;33342;45.574;9.252;2022-09-29T04:10:51;17.40;99.90
47626;DHT22;33342;45.574;9.252;2022-09-29T04:13:18;17.40;99.90
47626;DHT22;33342;45.574;9.252;2022-09-29T04:15:47;17.40;99.90
47626;DHT22;33342;45.574;9.252;2022-09-29T04:18:15;17.40;99.90
47626;DHT22;33342;45.574;9.252;2022-09-29T04:20:42;17.40;99.90
47626;DHT22;33342;45.574;9.252;2022-09-29T04:23:09;17.40;99.90
47626;DHT22;33342;45.574;9.252;2022-09-29T04:25:36;17.40;99.90
47626;DHT22;33342;45.574;9.252;2022-09-29T04:28:03;17.40;99.90
47626;DHT22;33342;45.574;9.252;2022-09-29T04:30:30;17.40;99.90
47626;DHT22;33342;45.574;9.252;2022-09-29T04:32:57;17.40;99.90
47626;DHT22;33342;45.574;9.252;2022-09-29T04:35:24;17.40;99.90
47626;DHT22;33342;45.574;9.252;2022-09-29T04:37:54;17.40;99.90
47626;DHT22;33342;45.574;9.252;2022-09-29T04:40:23;17.50;99.90
47626;DHT22;33342;45.574;9.252;2022-09-29T04:42:51;17.40;99.90
47626;DHT22;33342;45.574;9.252;2022-09-29T04:45:18;17.50;99.90
47626;DHT22;33342;45.574;9.252;2022-09-29T04:47:44;17.40;99.90
47626;DHT22;33342;45.574;9.252;2022-09-29T04:50:11;17.50;99.90
47626;DHT22;33342;45.574;9.252;2022-09-29T04:52:43;17.50;99.90
47626;DHT22;33342;45.574;9.252;2022-09-29T04:55:11;17.40;99.90
47626;DHT22;33342;45.574;9.252;2022-09-29T04:57:40;17.40;99.90
47626;DHT22;33342;45.574;9.252;2022-09-29T05:00:07;17.50;99.90
47626;DHT22;33342;45.574;9.252;2022-09-29T05:02:35;17.50;99.90
47626;DHT22;33342;45.574;9.252;2022-09-29T05:05:03;17.50;99.90
47626;DHT22;33342;45.574;9.252;2022-09-29T05:07:33;17.50;99.90
47626;DHT22;33342;45.574;9.252;2022-09-29T05:10:01;17.50;99.90
47626;DHT22;33342;45.574;9.252;2022-09-29T05:12:28;17.50;99.90
47626;DHT22;33342;45.574;9.252;2022-09-29T05:14:55;17.50;99.90
47626;DHT22;33342;45.574;9.252;2022-09-29T05:17:22;17.50;99.90
47626;DHT22;33342;45.574;9.252;2022-09-29T05:19:49;17.50;99.90
47626;DHT22;33342;45.574;9.252;2022-09-29T05:22:16;17.50;99.90
47626;DHT22;33342;45.574;9.252;2022-09-29T05:24:50;17.50;99.90
47626;DHT22;33342;45.574;9.252;2022-09-29T05:27:18;17.50;99.90
47626;DHT22;33342;45.574;9.252;2022-09-29T05:29:45;17.50;99.90
47626;DHT22;33342;45.574;9.252;2022-09-29T05:32:12;17.50;99.90
47626;DHT22;33342;45.574;9.252;2022-09-29T05:34:39;17.50;99.90
47626;DHT22;33342;45.574;9.252;2022-09-29T05:37:06;17.50;99.90
47626;DHT22;33342;45.574;9.252;2022-09-29T05:39:33;17.50;99.90
47626;DHT22;33342;45.574;9.252;2022-09-29T05:42:04;17.50;99.90
47626;DHT22;33342;45.574;9.252;2022-09-29T05:44:32;17.50;99.90
47626;DHT22;33342;45.574;9.252;2022-09-29T05:46:59;17.50;99.90
47626;DHT22;33342;45.574;9.252;2022-09-29T05:49:26;17.50;99.90
47626;DHT22;33342;45.574;9.252;2022-09-29T05:51:53;17.50;99.90
47626;DHT22;33342;45.574;9.252;2022-09-29T05:54:20;17.60;99.90
47626;DHT22;33342;45.574;9.252;2022-09-29T05:56:47;17.60;99.90
47626;DHT22;33342;45.574;9.252;2022-09-29T05:59:14;17.60;99.90
47626;DHT22;33342;45.574;9.252;2022-09-29T06:01:41;17.60;99.90
47626;DHT22;33342;45.574;9.252;2022-09-29T06:04:09;17.60;99.90
47626;DHT22;33342;45.574;9.252;2022-09-29T06:06:36;17.60;99.90
47626;DHT22;33342;45.574;9.252;2022-09-29T06:09:06;17.60;99.90
47626;DHT22;33342;45.574;9.252;2022-09-29T06:11:33;17.60;99.90
47626;DHT22;33342;45.574;9.252;2022-09-29T06:14:01;17.60;99.90
47626;DHT22;33342;45.574;9.252;2022-09-29T06:16:30;17.60;99.90
47626;DHT22;33342;45.574;9.252;2022-09-29T06:18:59;17.70;99.90
47626;DHT22;33342;45.574;9.252;2022-09-29T06:21:27;17.70;99.90
47626;DHT22;33342;45.574;9.252;2022-09-29T06:23:56;17.70;99.90
47626;DHT22;33342;45.574;9.252;2022-09-29T06:26:24;17.70;99.90
47626;DHT22;33342;45.574;9.252;2022-09-29T06:28:52;17.70;99.90
47626;DHT22;33342;45.574;9.252;2022-09-29T06:31:22;17.80;99.90
47626;DHT22;33342;45.574;9.252;2022-09-29T06:33:50;17.80;99.90
47626;DHT22;33342;45.574;9.252;2022-09-29T06:36:35;17.80;99.90
47626;DHT22;33342;45.574;9.252;2022-09-29T06:39:23;17.80;99.90
47626;DHT22;33342;45.574;9.252;2022-09-29T06:41:50;17.90;99.90
47626;DHT22;33342;45.574;9.252;2022-09-29T06:44:23;17.90;99.90
47626;DHT22;33342;45.574;9.252;2022-09-29T06:46:50;17.90;99.90
47626;DHT22;33342;45.574;9.252;2022-09-29T06:49:18;17.90;99.90
47626;DHT22;33342;45.574;9.252;2022-09-29T06:51:46;18.00;99.90
47626;DHT22;33342;45.574;9.252;2022-09-29T06:54:15;18.00;99.90
47626;DHT22;33342;45.574;9.252;2022-09-29T06:56:46;18.00;99.90
47626;DHT22;33342;45.574;9.252;2022-09-29T06:59:13;18.10;99.90
47626;DHT22;33342;45.574;9.252;2022-09-29T07:01:41;18.10;99.90
47626;DHT22;33342;45.574;9.252;2022-09-29T07:04:08;18.10;99.90
47626;DHT22;33342;45.574;9.252;2022-09-29T07:06:35;18.20;99.90
47626;DHT22;33342;45.574;9.252;2022-09-29T07:09:03;18.20;99.90
47626;DHT22;33342;45.574;9.252;2022-09-29T07:11:30;18.20;99.90
47626;DHT22;33342;45.574;9.252;2022-09-29T07:13:57;18.20;99.90
47626;DHT22;33342;45.574;9.252;2022-09-29T07:16:24;18.30;99.90
47626;DHT22;33342;45.574;9.252;2022-09-29T07:18:51;18.30;99.90
47626;DHT22;33342;45.574;9.252;2022-09-29T07:21:19;18.30;99.90
47626;DHT22;33342;45.574;9.252;2022-09-29T07:23:49;18.40;99.90
47626;DHT22;33342;45.574;9.252;2022-09-29T07:26:16;18.40;99.90
47626;DHT22;33342;45.574;9.252;2022-09-29T07:28:44;18.50;99.90
47626;DHT22;33342;45.574;9.252;2022-09-29T07:31:17;18.50;99.90
47626;DHT22;33342;45.574;9.252;2022-09-29T07:33:47;18.50;99.90
47626;DHT22;33342;45.574;9.252;2022-09-29T07:36:17;18.50;99.90
47626;DHT22;33342;45.574;9.252;2022-09-29T07:38:48;18.60;99.90
47626;DHT22;33342;45.574;9.252;2022-09-29T07:41:18;18.60;99.90
47626;DHT22;33342;45.574;9.252;2022-09-29T07:43:46;18.70;99.90
47626;DHT22;33342;45.574;9.252;2022-09-29T07:46:13;18.70;99.90
47626;DHT22;33342;45.574;9.252;2022-09-29T07:48:40;18.70;99.90
47626;DHT22;33342;45.574;9.252;2022-09-29T07:51:15;18.70;99.90
47626;DHT22;33342;45.574;9.252;2022-09-29T07:53:42;18.70;99.90
47626;DHT22;33342;45.574;9.252;2022-09-29T07:56:16;18.70;99.90
47626;DHT22;33342;45.574;9.252;2022-09-29T07:58:45;18.70;99.90
47626;DHT22;33342;45.574;9.252;2022-09-29T08:01:13;18.70;99.90
47626;DHT22;33342;45.574;9.252;2022-09-29T08:03:47;18.70;99.90
47626;DHT22;33342;45.574;9.252;2022-09-29T08:06:14;18.70;99.90
47626;DHT22;33342;45.574;9.252;2022-09-29T08:08:42;18.70;99.90
47626;DHT22;33342;45.574;9.252;2022-09-29T08:11:22;18.70;99.90
47626;DHT22;33342;45.574;9.252;2022-09-29T08:13:57;18.70;99.90
47626;DHT22;33342;45.574;9.252;2022-09-29T08:16:24;18.70;99.90
47626;DHT22;33342;45.574;9.252;2022-09-29T08:18:52;18.70;99.90
47626;DHT22;33342;45.574;9.252;2022-09-29T08:21:19;18.80;99.90
47626;DHT22;33342;45.574;9.252;2022-09-29T08:23:46;18.80;99.90
47626;DHT22;33342;45.574;9.252;2022-09-29T08:26:15;18.80;99.90
47626;DHT22;33342;45.574;9.252;2022-09-29T08:28:43;18.90;99.90
47626;DHT22;33342;45.574;9.252;2022-09-29T08:31:16;18.90;99.90
47626;DHT22;33342;45.574;9.252;2022-09-29T08:33:47;18.90;99.90
47626;DHT22;33342;45.574;9.252;2022-09-29T08:36:19;19.00;99.90
47626;DHT22;33342;45.574;9.252;2022-09-29T08:38:51;19.00;99.90
47626;DHT22;33342;45.574;9.252;2022-09-29T08:44:04;19.10;99.90
47626;DHT22;33342;45.574;9.252;2022-09-29T08:46:47;19.10;99.90
47626;DHT22;33342;45.574;9.252;2022-09-29T08:49:34;19.10;99.90
47626;DHT22;33342;45.574;9.252;2022-09-29T08:52:10;19.20;99.90
47626;DHT22;33342;45.574;9.252;2022-09-29T08:54:44;19.20;99.90
47626;DHT22;33342;45.574;9.252;2022-09-29T08:57:17;19.20;99.90
47626;DHT22;33342;45.574;9.252;2022-09-29T08:59:57;19.20;99.90
47626;DHT22;33342;45.574;9.252;2022-09-29T09:22:10;19.40;99.90
47626;DHT22;33342;45.574;9.252;2022-09-29T09:24:58;19.50;99.90
47626;DHT22;33342;45.574;9.252;2022-09-29T09:27:37;19.50;99.90
47626;DHT22;33342;45.574;9.252;2022-09-29T09:30:12;19.50;99.90
47626;DHT22;33342;45.574;9.252;2022-09-29T09:32:55;19.60;99.90
47626;DHT22;33342;45.574;9.252;2022-09-29T09:35:46;19.60;99.90
47626;DHT22;33342;45.574;9.252;2022-09-29T09:38:27;19.60;99.90
47626;DHT22;33342;45.574;9.252;2022-09-29T09:41:00;19.60;99.90
47626;DHT22;33342;45.574;9.252;2022-09-29T09:43:32;19.70;99.90
47626;DHT22;33342;45.574;9.252;2022-09-29T09:46:04;19.70;99.90
47626;DHT22;33342;45.574;9.252;2022-09-29T09:48:37;19.70;99.90
47626;DHT22;33342;45.574;9.252;2022-09-29T09:57:13;19.70;99.90
47626;DHT22;33342;45.574;9.252;2022-09-29T10:03:00;19.70;99.90
47626;DHT22;33342;45.574;9.252;2022-09-29T10:05:45;19.80;99.90
47626;DHT22;33342;45.574;9.252;2022-09-29T10:08:26;19.70;99.90
47626;DHT22;33342;45.574;9.252;2022-09-29T10:10:56;19.80;99.90
47626;DHT22;33342;45.574;9.252;2022-09-29T10:13:28;19.80;99.90
47626;DHT22;33342;45.574;9.252;2022-09-29T10:16:32;19.80;99.90
47626;DHT22;33342;45.574;9.252;2022-09-29T10:19:03;19.80;99.90
47626;DHT22;33342;45.574;9.252;2022-09-29T10:21:41;19.80;99.90
47626;DHT22;33342;45.574;9.252;2022-09-29T10:26:51;19.80;99.90
47626;DHT22;33342;45.574;9.252;2022-09-29T10:29:37;19.80;99.90
47626;DHT22;33342;45.574;9.252;2022-09-29T10:32:13;19.80;99.90
47626;DHT22;33342;45.574;9.252;2022-09-29T10:34:45;19.90;99.90
47626;DHT22;33342;45.574;9.252;2022-09-29T10:37:25;19.90;99.90
47626;DHT22;33342;45.574;9.252;2022-09-29T10:42:36;20.00;99.90
47626;DHT22;33342;45.574;9.252;2022-09-29T10:47:30;20.10;99.90
47626;DHT22;33342;45.574;9.252;2022-09-29T10:50:18;20.10;99.90
47626;DHT22;33342;45.574;9.252;2022-09-29T10:52:55;20.10;99.90
47626;DHT22;33342;45.574;9.252;2022-09-29T10:55:25;20.10;99.90
47626;DHT22;33342;45.574;9.252;2022-09-29T10:57:56;20.10;99.90
47626;DHT22;33342;45.574;9.252;2022-09-29T11:03:45;20.10;99.90
47626;DHT22;33342;45.574;9.252;2022-09-29T11:05:55;20.10;99.90
47626;DHT22;33342;45.574;9.252;2022-09-29T11:08:24;20.20;99.90
47626;DHT22;33342;45.574;9.252;2022-09-29T11:11:20;20.10;99.90
47626;DHT22;33342;45.574;9.252;2022-09-29T11:13:48;20.10;99.90
47626;DHT22;33342;45.574;9.252;2022-09-29T11:16:27;20.20;99.90
47626;DHT22;33342;45.574;9.252;2022-09-29T11:19:03;20.20;99.90
47626;DHT22;33342;45.574;9.252;2022-09-29T11:35:38;20.30;99.90
47626;DHT22;33342;45.574;9.252;2022-09-29T11:43:49;20.30;99.90
47626;DHT22;33342;45.574;9.252;2022-09-29T11:46:45;20.40;99.90
47626;DHT22;33342;45.574;9.252;2022-09-29T11:49:24;20.40;99.90
47626;DHT22;33342;45.574;9.252;2022-09-29T12:00:13;20.40;99.90
47626;DHT22;33342;45.574;9.252;2022-09-29T12:11:19;20.60;99.90
47626;DHT22;33342;45.574;9.252;2022-09-29T12:14:29;20.60;99.90
47626;DHT22;33342;45.574;9.252;2022-09-29T12:17:12;20.60;99.90
47626;DHT22;33342;45.574;9.252;2022-09-29T12:19:42;20.70;99.90
47626;DHT22;33342;45.574;9.252;2022-09-29T12:22:14;20.70;99.90
47626;DHT22;33342;45.574;9.252;2022-09-29T12:24:50;20.70;99.90
47626;DHT22;33342;45.574;9.252;2022-09-29T12:27:40;20.70;99.90
47626;DHT22;33342;45.574;9.252;2022-09-29T12:30:22;20.80;99.90
47626;DHT22;33342;45.574;9.252;2022-09-29T12:32:55;20.80;99.90
47626;DHT22;33342;45.574;9.252;2022-09-29T12:35:34;20.90;99.90
47626;DHT22;33342;45.574;9.252;2022-09-29T12:38:23;21.00;99.90
47626;DHT22;33342;45.574;9.252;2022-09-29T12:46:35;21.00;99.90
47626;DHT22;33342;45.574;9.252;2022-09-29T12:49:25;21.10;99.90
47626;DHT22;33342;45.574;9.252;2022-09-29T12:51:55;21.10;99.90
47626;DHT22;33342;45.574;9.252;2022-09-29T12:59:48;21.20;99.90
47626;DHT22;33342;45.574;9.252;2022-09-29T13:10:31;21.00;99.90
47626;DHT22;33342;45.574;9.252;2022-09-29T13:15:46;21.00;99.90
47626;DHT22;33342;45.574;9.252;2022-09-29T13:24:04;21.10;99.90
47626;DHT22;33342;45.574;9.252;2022-09-29T13:29:31;21.20;99.90
47626;DHT22;33342;45.574;9.252;2022-09-29T13:32:04;21.30;99.90
47626;DHT22;33342;45.574;9.252;2022-09-29T13:34:33;21.30;99.90
47626;DHT22;33342;45.574;9.252;2022-09-29T13:37:12;21.30;99.90
47626;DHT22;33342;45.574;9.252;2022-09-29T13:50:51;21.70;99.90
47626;DHT22;33342;45.574;9.252;2022-09-29T13:58:27;22.00;99.90
47626;DHT22;33342;45.574;9.252;2022-09-29T14:00:57;22.00;99.90
47626;DHT22;33342;45.574;9.252;2022-09-29T14:06:16;22.10;99.90
47626;DHT22;33342;45.574;9.252;2022-09-29T14:09:06;22.00;99.90
47626;DHT22;33342;45.574;9.252;2022-09-29T14:11:47;22.10;99.90
47626;DHT22;33342;45.574;9.252;2022-09-29T14:14:23;22.20;99.90
47626;DHT22;33342;45.574;9.252;2022-09-29T14:16:57;22.30;99.90
47626;DHT22;33342;45.574;9.252;2022-09-29T14:19:33;22.40;99.90
47626;DHT22;33342;45.574;9.252;2022-09-29T14:24:50;22.50;99.90
47626;DHT22;33342;45.574;9.252;2022-09-29T14:27:31;22.50;99.90
47626;DHT22;33342;45.574;9.252;2022-09-29T14:32:56;22.60;99.90
47626;DHT22;33342;45.574;9.252;2022-09-29T14:37:59;22.60;99.90
47626;DHT22;33342;45.574;9.252;2022-09-29T14:40:26;22.60;99.90
47626;DHT22;33342;45.574;9.252;2022-09-29T14:43:11;22.50;99.90
47626;DHT22;33342;45.574;9.252;2022-09-29T14:46:08;22.50;99.90
47626;DHT22;33342;45.574;9.252;2022-09-29T14:49:06;22.40;99.90
47626;DHT22;33342;45.574;9.252;2022-09-29T14:54:42;22.40;99.90
47626;DHT22;33342;45.574;9.252;2022-09-29T15:02:30;22.70;99.90
47626;DHT22;33342;45.574;9.252;2022-09-29T15:05:19;22.60;99.90
47626;DHT22;33342;45.574;9.252;2022-09-29T15:07:56;22.50;99.90
47626;DHT22;33342;45.574;9.252;2022-09-29T15:10:29;22.40;99.90
47626;DHT22;33342;45.574;9.252;2022-09-29T15:13:16;22.50;99.90
47626;DHT22;33342;45.574;9.252;2022-09-29T15:15:47;22.60;99.90
47626;DHT22;33342;45.574;9.252;2022-09-29T15:23:56;22.70;99.90
47626;DHT22;33342;45.574;9.252;2022-09-29T15:26:27;22.70;99.90
47626;DHT22;33342;45.574;9.252;2022-09-29T15:28:57;22.80;99.90
47626;DHT22;33342;45.574;9.252;2022-09-29T15:31:30;22.90;99.90
47626;DHT22;33342;45.574;9.252;2022-09-29T15:34:01;23.00;99.90
47626;DHT22;33342;45.574;9.252;2022-09-29T15:36:36;23.40;99.90
47626;DHT22;33342;45.574;9.252;2022-09-29T15:39:06;23.90;99.90
47626;DHT22;33342;45.574;9.252;2022-09-29T15:41:39;24.40;99.90
47626;DHT22;33342;45.574;9.252;2022-09-29T15:44:15;24.90;99.90
47626;DHT22;33342;45.574;9.252;2022-09-29T15:46:49;25.20;99.90
47626;DHT22;33342;45.574;9.252;2022-09-29T15:52:06;25.40;99.90
47626;DHT22;33342;45.574;9.252;2022-09-29T15:54:39;25.40;99.90
47626;DHT22;33342;45.574;9.252;2022-09-29T16:03:05;24.90;99.90
47626;DHT22;33342;45.574;9.252;2022-09-29T16:05:41;24.70;99.90
47626;DHT22;33342;45.574;9.252;2022-09-29T16:08:16;24.30;99.90
47626;DHT22;33342;45.574;9.252;2022-09-29T16:10:53;24.10;99.90
47626;DHT22;33342;45.574;9.252;2022-09-29T16:13:24;23.80;99.90
47626;DHT22;33342;45.574;9.252;2022-09-29T16:16:04;23.50;99.90
47626;DHT22;33342;45.574;9.252;2022-09-29T16:18:32;23.30;99.90
47626;DHT22;33342;45.574;9.252;2022-09-29T16:21:19;23.20;99.90
47626;DHT22;33342;45.574;9.252;2022-09-29T16:23:59;23.00;99.90
47626;DHT22;33342;45.574;9.252;2022-09-29T16:31:40;22.60;99.90
47626;DHT22;33342;45.574;9.252;2022-09-29T16:34:34;22.50;99.90
47626;DHT22;33342;45.574;9.252;2022-09-29T16:37:17;22.40;99.90
47626;DHT22;33342;45.574;9.252;2022-09-29T16:39:46;22.30;99.90
47626;DHT22;33342;45.574;9.252;2022-09-29T16:42:21;22.30;99.90
47626;DHT22;33342;45.574;9.252;2022-09-29T16:44:50;22.20;99.90
47626;DHT22;33342;45.574;9.252;2022-09-29T16:47:25;22.10;99.90
47626;DHT22;33342;45.574;9.252;2022-09-29T16:49:58;22.00;99.90
47626;DHT22;33342;45.574;9.252;2022-09-29T16:55:15;21.70;99.90
47626;DHT22;33342;45.574;9.252;2022-09-29T17:00:34;21.40;99.90
47626;DHT22;33342;45.574;9.252;2022-09-29T17:03:04;21.30;99.90
47626;DHT22;33342;45.574;9.252;2022-09-29T17:05:36;21.10;99.90
47626;DHT22;33342;45.574;9.252;2022-09-29T17:08:15;21.00;99.90
47626;DHT22;33342;45.574;9.252;2022-09-29T17:10:43;20.90;99.90
47626;DHT22;33342;45.574;9.252;2022-09-29T17:13:12;20.80;99.90
47626;DHT22;33342;45.574;9.252;2022-09-29T17:15:40;20.80;99.90
47626;DHT22;33342;45.574;9.252;2022-09-29T17:18:11;20.70;99.90
47626;DHT22;33342;45.574;9.252;2022-09-29T17:20:39;20.70;99.90
47626;DHT22;33342;45.574;9.252;2022-09-29T17:23:07;20.70;99.90
47626;DHT22;33342;45.574;9.252;2022-09-29T17:25:35;20.70;99.90
47626;DHT22;33342;45.574;9.252;2022-09-29T17:28:05;20.60;99.90
47626;DHT22;33342;45.574;9.252;2022-09-29T17:30:40;20.60;99.90
47626;DHT22;33342;45.574;9.252;2022-09-29T17:33:09;20.50;99.90
47626;DHT22;33342;45.574;9.252;2022-09-29T17:35:39;20.50;99.90
47626;DHT22;33342;45.574;9.252;2022-09-29T17:38:07;20.40;99.90
47626;DHT22;33342;45.574;9.252;2022-09-29T17:43:05;20.30;99.90
47626;DHT22;33342;45.574;9.252;2022-09-29T17:45:31;20.20;99.90
47626;DHT22;33342;45.574;9.252;2022-09-29T17:48:06;20.20;99.90
47626;DHT22;33342;45.574;9.252;2022-09-29T17:50:36;20.20;99.90
47626;DHT22;33342;45.574;9.252;2022-09-29T17:53:06;20.20;99.90
47626;DHT22;33342;45.574;9.252;2022-09-29T17:55:35;20.20;99.90
47626;DHT22;33342;45.574;9.252;2022-09-29T17:58:04;20.20;99.90
47626;DHT22;33342;45.574;9.252;2022-09-29T18:00:36;20.10;99.90
47626;DHT22;33342;45.574;9.252;2022-09-29T18:03:09;20.10;99.90
47626;DHT22;33342;45.574;9.252;2022-09-29T18:05:40;20.00;99.90
47626;DHT22;33342;45.574;9.252;2022-09-29T18:08:13;20.00;99.90
47626;DHT22;33342;45.574;9.252;2022-09-29T18:13:22;20.00;99.90
47626;DHT22;33342;45.574;9.252;2022-09-29T18:15:49;19.90;99.90
47626;DHT22;33342;45.574;9.252;2022-09-29T18:18:19;19.90;99.90
47626;DHT22;33342;45.574;9.252;2022-09-29T18:20:47;19.90;99.90
47626;DHT22;33342;45.574;9.252;2022-09-29T18:23:17;19.90;99.90
47626;DHT22;33342;45.574;9.252;2022-09-29T18:25:46;19.90;99.90
47626;DHT22;33342;45.574;9.252;2022-09-29T18:28:16;19.90;99.90
47626;DHT22;33342;45.574;9.252;2022-09-29T18:30:46;19.80;99.90
47626;DHT22;33342;45.574;9.252;2022-09-29T18:33:16;19.90;99.90
47626;DHT22;33342;45.574;9.252;2022-09-29T18:35:49;19.80;99.90
47626;DHT22;33342;45.574;9.252;2022-09-29T18:38:16;19.80;99.90
47626;DHT22;33342;45.574;9.252;2022-09-29T18:40:44;19.80;99.90
47626;DHT22;33342;45.574;9.252;2022-09-29T18:43:13;19.80;99.90
47626;DHT22;33342;45.574;9.252;2022-09-29T18:45:41;19.70;99.90
47626;DHT22;33342;45.574;9.252;2022-09-29T18:48:13;19.70;99.90
47626;DHT22;33342;45.574;9.252;2022-09-29T18:50:42;19.70;99.90
47626;DHT22;33342;45.574;9.252;2022-09-29T18:53:11;19.70;99.90
47626;DHT22;33342;45.574;9.252;2022-09-29T18:55:39;19.60;99.90
47626;DHT22;33342;45.574;9.252;2022-09-29T18:58:17;19.60;99.90
47626;DHT22;33342;45.574;9.252;2022-09-29T19:00:48;19.60;99.90
47626;DHT22;33342;45.574;9.252;2022-09-29T19:03:16;19.60;99.90
47626;DHT22;33342;45.574;9.252;2022-09-29T19:05:46;19.60;99.90
47626;DHT22;33342;45.574;9.252;2022-09-29T19:08:15;19.50;99.90
47626;DHT22;33342;45.574;9.252;2022-09-29T19:10:55;19.50;99.90
47626;DHT22;33342;45.574;9.252;2022-09-29T19:13:26;19.50;99.90
47626;DHT22;33342;45.574;9.252;2022-09-29T19:15:56;19.50;99.90
47626;DHT22;33342;45.574;9.252;2022-09-29T19:18:25;19.50;99.90
47626;DHT22;33342;45.574;9.252;2022-09-29T19:20:54;19.50;99.90
47626;DHT22;33342;45.574;9.252;2022-09-29T19:23:23;19.40;99.90
47626;DHT22;33342;45.574;9.252;2022-09-29T19:25:52;19.50;99.90
47626;DHT22;33342;45.574;9.252;2022-09-29T19:28:21;19.40;99.90
47626;DHT22;33342;45.574;9.252;2022-09-29T19:30:49;19.40;99.90
47626;DHT22;33342;45.574;9.252;2022-09-29T19:33:20;19.40;99.90
47626;DHT22;33342;45.574;9.252;2022-09-29T19:35:51;19.40;99.90